createdAt,value
2018-08-23T00:03:15.289Z,22.22
2018-08-23T00:08:11.906Z,22.07
2018-08-23T00:13:08.440Z,21.85
2018-08-23T00:18:04.954Z,21.82
2018-08-23T00:23:00.798Z,21.79
2018-08-23T00:27:56.711Z,21.82
2018-08-23T00:32:52.275Z,21.72
2018-08-23T00:37:49.112Z,21.66
2018-08-23T00:42:44.655Z,21.57
2018-08-23T00:47:40.949Z,21.50
2018-08-23T00:52:37.223Z,21.45
2018-08-23T00:57:33.614Z,21.27
2018-08-23T01:02:30.790Z,21.27
2018-08-23T01:07:26.311Z,21.25
2018-08-23T01:12:21.904Z,21.11
2018-08-23T01:17:18.991Z,20.97
2018-08-23T01:22:14.407Z,20.97
2018-08-23T01:27:10.356Z,20.84
2018-08-23T01:32:06.520Z,20.74
2018-08-23T01:37:02.389Z,20.81
2018-08-23T01:41:59.280Z,20.78
2018-08-23T01:46:55.941Z,20.82
2018-08-23T01:51:51.421Z,20.80
2018-08-23T01:56:47.107Z,20.67
2018-08-23T02:01:44.053Z,20.74
2018-08-23T02:06:39.399Z,20.55
2018-08-23T02:11:35.148Z,20.47
2018-08-23T02:16:31.190Z,20.47
2018-08-23T02:21:26.868Z,20.39
2018-08-23T02:26:22.846Z,20.51
2018-08-23T02:31:19.069Z,20.43
2018-08-23T02:36:15.825Z,20.37
2018-08-23T02:41:11.396Z,20.55
2018-08-23T02:46:08.609Z,20.52
2018-08-23T02:51:04.254Z,20.51
2018-08-23T02:56:01.013Z,20.32
2018-08-23T03:00:57.064Z,20.40
2018-08-23T03:05:52.645Z,20.40
2018-08-23T03:10:48.659Z,20.37
2018-08-23T03:15:45.558Z,20.37
2018-08-23T03:20:42.367Z,20.32
2018-08-23T03:25:37.860Z,20.32
2018-08-23T03:30:33.768Z,20.24
2018-08-23T03:35:29.546Z,20.24
2018-08-23T03:40:25.420Z,20.24
2018-08-23T03:45:21.905Z,20.21
2018-08-23T03:50:18.191Z,20.16
2018-08-23T03:55:15.576Z,20.14
2018-08-23T04:00:11.626Z,20.04
2018-08-23T04:05:07.115Z,19.96
2018-08-23T04:10:02.949Z,19.95
2018-08-23T04:14:59.723Z,19.92
2018-08-23T04:19:55.676Z,19.89
2018-08-23T04:24:51.477Z,19.88
2018-08-23T04:29:47.359Z,19.77
2018-08-23T04:34:43.104Z,19.70
2018-08-23T04:39:39.941Z,19.58
2018-08-23T04:44:35.703Z,19.62
2018-08-23T04:49:32.446Z,19.64
2018-08-23T04:54:28.016Z,19.71
2018-08-23T04:59:24.809Z,19.81
2018-08-23T05:04:20.377Z,19.67
2018-08-23T05:09:17.079Z,19.77
2018-08-23T05:14:13.699Z,19.91
2018-08-23T05:19:10.058Z,20.06
2018-08-23T05:24:06.233Z,20.24
2018-08-23T05:29:03.201Z,20.28
2018-08-23T05:33:58.988Z,20.32
2018-08-23T05:38:55.258Z,20.37
2018-08-23T05:43:51.934Z,20.48
2018-08-23T05:48:48.417Z,20.67
2018-08-23T05:53:45.418Z,20.78
2018-08-23T05:58:41.210Z,20.87
2018-08-23T06:03:37.123Z,20.85
2018-08-23T06:08:32.973Z,20.82
2018-08-23T06:13:28.854Z,20.87
2018-08-23T06:18:24.996Z,20.97
2018-08-23T06:23:20.945Z,20.95
2018-08-23T06:28:17.005Z,21.18
2018-08-23T06:33:13.135Z,21.14
2018-08-23T06:38:09.415Z,21.12
2018-08-23T06:43:06.367Z,21.24
2018-08-23T06:48:01.997Z,21.48
2018-08-23T06:52:58.070Z,21.55
2018-08-23T06:57:54.061Z,21.61
2018-08-23T07:02:50.656Z,21.62
2018-08-23T07:07:47.308Z,21.79
2018-08-23T07:12:44.335Z,21.66
2018-08-23T07:17:41.001Z,21.79
2018-08-23T07:22:36.558Z,21.85
2018-08-23T07:27:32.950Z,22.10
2018-08-23T07:32:30.146Z,22.47
2018-08-23T07:37:26.623Z,23.05
2018-08-23T07:42:23.303Z,23.17
2018-08-23T07:47:20.147Z,23.15
2018-08-23T07:52:15.713Z,23.06
2018-08-23T07:57:11.524Z,23.12
2018-08-23T08:02:07.274Z,23.17
2018-08-23T08:07:03.619Z,23.95
2018-08-23T08:12:02.566Z,25.07
2018-08-23T08:16:59.546Z,25.23
2018-08-23T08:21:56.590Z,25.38
2018-08-23T08:26:52.926Z,25.36
2018-08-23T08:31:49.303Z,25.36
2018-08-23T08:36:44.547Z,25.43
2018-08-23T08:41:39.656Z,24.85
2018-08-23T08:46:36.001Z,24.58
2018-08-23T08:51:31.332Z,24.58
2018-08-23T08:56:26.704Z,24.57
2018-08-23T09:01:22.682Z,24.55
2018-08-23T09:06:19.512Z,24.53
2018-08-23T09:11:15.337Z,24.69
2018-08-23T09:16:11.513Z,24.86
2018-08-23T09:21:07.735Z,25.03
2018-08-23T09:26:03.812Z,24.88
2018-08-23T09:30:59.820Z,24.96
2018-08-23T09:35:56.696Z,25.26
2018-08-23T09:40:54.004Z,25.50
2018-08-23T09:45:50.418Z,25.91
2018-08-23T09:50:48.041Z,26.47
2018-08-23T09:55:46.092Z,26.47
2018-08-23T10:00:41.316Z,26.63
2018-08-23T10:05:36.927Z,26.77
2018-08-23T10:10:34.766Z,27.15
2018-08-23T10:15:31.141Z,27.21
2018-08-23T10:20:27.835Z,27.18
2018-08-23T10:25:24.665Z,27.85
2018-08-23T10:30:21.070Z,27.86
2018-08-23T10:35:18.417Z,27.98
2018-08-23T10:40:15.089Z,28.22
2018-08-23T10:45:11.369Z,28.04
2018-08-23T10:50:06.422Z,27.98
2018-08-23T10:55:01.835Z,27.63
2018-08-23T10:59:59.304Z,27.27
2018-08-23T11:04:54.881Z,27.35
2018-08-23T11:09:51.097Z,27.35
2018-08-23T11:14:47.424Z,27.71
2018-08-23T11:19:42.643Z,27.68
2018-08-23T11:24:39.813Z,27.33
2018-08-23T11:29:36.320Z,27.32
2018-08-23T11:34:31.949Z,27.44
2018-08-23T11:39:27.245Z,27.45
2018-08-23T11:44:23.770Z,27.22
2018-08-23T11:49:21.606Z,27.65
2018-08-23T11:54:18.770Z,28.39
2018-08-23T11:59:16.307Z,28.38
2018-08-23T12:04:11.632Z,28.17
2018-08-23T12:09:09.100Z,28.39
2018-08-23T12:14:03.397Z,27.85
2018-08-23T12:18:59.023Z,27.70
2018-08-23T12:23:54.997Z,27.90
2018-08-23T12:28:50.452Z,28.19
2018-08-23T12:33:46.450Z,28.33
2018-08-23T12:38:43.335Z,28.00
2018-08-23T12:43:39.704Z,27.77
2018-08-23T12:48:36.505Z,27.96
2018-08-23T12:53:32.473Z,28.22
2018-08-23T12:58:28.595Z,28.19
2018-08-23T13:03:24.920Z,28.19
2018-08-23T13:08:21.837Z,27.92
2018-08-23T13:13:17.511Z,27.86
2018-08-23T13:18:13.559Z,27.85
2018-08-23T13:23:09.681Z,27.68
2018-08-23T13:28:06.061Z,27.60
2018-08-23T13:33:01.880Z,27.49
2018-08-23T13:37:58.609Z,27.44
2018-08-23T13:42:54.235Z,27.27
2018-08-23T13:47:50.077Z,27.25
2018-08-23T13:52:46.596Z,27.20
2018-08-23T13:57:43.577Z,27.22
2018-08-23T14:02:40.639Z,27.39
2018-08-23T14:07:36.386Z,27.29
2018-08-23T14:12:32.547Z,27.35
2018-08-23T14:17:28.374Z,27.20
2018-08-23T14:22:24.323Z,27.33
2018-08-23T14:27:20.659Z,27.39
2018-08-23T14:32:18.178Z,27.35
2018-08-23T14:37:13.802Z,27.45
2018-08-23T14:42:09.896Z,27.40
2018-08-23T14:47:07.067Z,27.52
2018-08-23T14:52:03.581Z,27.40
2018-08-23T14:56:59.034Z,27.40
2018-08-23T15:01:55.225Z,27.26
2018-08-23T15:06:51.405Z,27.30
2018-08-23T15:11:47.286Z,27.05
2018-08-23T15:16:44.304Z,26.93
2018-08-23T15:21:40.098Z,26.71
2018-08-23T15:26:36.152Z,26.63
2018-08-23T15:31:32.281Z,26.56
2018-08-23T15:36:28.628Z,26.68
2018-08-23T15:41:24.726Z,26.55
2018-08-23T15:46:20.558Z,26.51
2018-08-23T15:51:16.535Z,26.41
2018-08-23T15:56:12.742Z,26.28
2018-08-23T16:01:08.733Z,26.26
2018-08-23T16:06:05.014Z,26.29
2018-08-23T16:11:00.807Z,26.09
2018-08-23T16:15:56.756Z,25.95
2018-08-23T16:20:53.717Z,25.98
2018-08-23T16:25:49.212Z,25.87
2018-08-23T16:30:45.108Z,25.84
2018-08-23T16:35:40.972Z,25.75
2018-08-23T16:40:37.049Z,25.65
2018-08-23T16:45:32.974Z,25.63
2018-08-23T16:50:30.679Z,25.51
2018-08-23T16:55:27.397Z,25.54
2018-08-23T17:00:24.013Z,25.44
2018-08-23T17:05:19.884Z,25.41
2018-08-23T17:10:16.708Z,25.32
2018-08-23T17:15:12.430Z,25.14
2018-08-23T17:20:08.253Z,25.11
2018-08-23T17:25:04.187Z,24.96
2018-08-23T17:30:00.010Z,25.03
2018-08-23T17:34:56.312Z,24.91
2018-08-23T17:39:52.458Z,24.69
2018-08-23T17:44:48.217Z,24.65
2018-08-23T17:49:44.011Z,24.51
2018-08-23T17:54:39.767Z,24.51
2018-08-23T17:59:35.627Z,24.24
2018-08-23T18:04:31.343Z,24.10
2018-08-23T18:09:28.209Z,23.98
2018-08-23T18:14:23.813Z,23.92
2018-08-23T18:19:19.645Z,23.81
2018-08-23T18:24:15.652Z,23.86
2018-08-23T18:29:11.567Z,23.81
2018-08-23T18:34:07.807Z,23.74
2018-08-23T18:39:04.179Z,23.61
2018-08-23T18:43:59.881Z,23.61
2018-08-23T18:48:56.639Z,23.46
2018-08-23T18:53:52.305Z,23.46
2018-08-23T18:58:48.418Z,23.27
2018-08-23T19:03:44.124Z,23.31
2018-08-23T19:08:39.870Z,23.21
2018-08-23T19:13:36.647Z,23.09
2018-08-23T19:18:32.300Z,23.00
2018-08-23T19:23:28.244Z,22.96
2018-08-23T19:28:24.194Z,22.99
2018-08-23T19:33:20.981Z,22.96
2018-08-23T19:38:16.741Z,22.85
2018-08-23T19:43:12.662Z,22.73
2018-08-23T19:48:08.693Z,22.70
2018-08-23T19:53:05.661Z,22.55
2018-08-23T19:58:02.217Z,22.55
2018-08-23T20:02:57.789Z,22.53
2018-08-23T20:07:54.664Z,22.43
2018-08-23T20:12:50.399Z,22.33
2018-08-23T20:17:46.271Z,22.38
2018-08-23T20:22:41.709Z,22.25
2018-08-23T20:27:37.481Z,22.26
2018-08-23T20:32:33.458Z,22.18
2018-08-23T20:37:29.375Z,22.07
2018-08-23T20:42:25.438Z,22.08
2018-08-23T20:47:21.449Z,21.99
2018-08-23T20:52:18.274Z,21.95
2018-08-23T20:57:14.258Z,21.96
2018-08-23T21:02:09.986Z,21.96
2018-08-23T21:07:05.462Z,21.93
2018-08-23T21:12:02.367Z,21.87
2018-08-23T21:16:59.490Z,21.83
2018-08-23T21:21:55.141Z,21.79
2018-08-23T21:26:50.905Z,21.70
2018-08-23T21:31:48.114Z,21.75
2018-08-23T21:36:43.591Z,21.60
2018-08-23T21:41:40.589Z,21.70
2018-08-23T21:46:36.135Z,21.60
2018-08-23T21:51:31.921Z,21.43
2018-08-23T21:56:28.226Z,21.43
2018-08-23T22:01:25.065Z,21.50
2018-08-23T22:06:20.743Z,21.43
2018-08-23T22:11:17.396Z,21.46
2018-08-23T22:16:14.365Z,21.30
2018-08-23T22:21:10.158Z,21.30
2018-08-23T22:26:05.889Z,21.09
2018-08-23T22:31:01.605Z,21.22
2018-08-23T22:35:58.606Z,21.24
2018-08-23T22:40:55.203Z,21.14
2018-08-23T22:45:50.808Z,21.25
2018-08-23T22:50:46.738Z,21.36
2018-08-23T22:55:43.903Z,21.29
2018-08-23T23:00:39.617Z,21.48
2018-08-23T23:05:35.590Z,21.48
2018-08-23T23:10:31.450Z,21.52
2018-08-23T23:15:28.180Z,21.51
2018-08-23T23:20:23.734Z,21.29
2018-08-23T23:25:20.017Z,21.24
2018-08-23T23:30:16.141Z,21.24
2018-08-23T23:35:12.904Z,21.22
2018-08-23T23:40:08.671Z,21.32
2018-08-23T23:45:04.368Z,21.35
2018-08-23T23:50:01.185Z,21.29
2018-08-23T23:54:57.221Z,21.27
2018-08-23T23:59:53.262Z,21.00
